Time;durP1;ratioP1;P1;durP2;ratioP2;P2;SDS_P1;SDS_P2;PMS_P1;PMS_P2;Temp;Humidity;BMP_temperature;BMP_pressure;BME280_temperature;BME280_humidity;BME280_pressure;Samples;Min_cycle;Max_cycle;Signal;HPM_P1;HPM_P2
2024/01/09 00:00:41;;;;;;;9.82;8.82;;;;;;;;;;5020961;28;20210;-69
2024/01/09 00:03:09;;;;;;;9.55;8.55;;;;;;;;;;5020806;28;20491;-69
2024/01/09 00:05:36;;;;;;;9.80;8.80;;;;;;;;;;5020767;28;20268;-69
2024/01/09 00:08:04;;;;;;;9.60;8.60;;;;;;;;;;5020734;28;20206;-69
2024/01/09 00:10:32;;;;;;;9.85;8.32;;;;;;;;;;5020400;28;20214;-69
2024/01/09 00:13:01;;;;;;;9.57;8.30;;;;;;;;;;5020030;28;20206;-69
2024/01/09 00:15:29;;;;;;;20.48;16.20;;;;;;;;;;5020636;28;20490;-70
2024/01/09 00:17:57;;;;;;;13.98;12.25;;;;;;;;;;5020415;28;20271;-69
2024/01/09 00:20:24;;;;;;;12.70;10.73;;;;;;;;;;5020276;28;20206;-69
2024/01/09 00:22:52;;;;;;;13.45;11.00;;;;;;;;;;5020741;28;20234;-69
2024/01/09 00:25:20;;;;;;;13.30;11.00;;;;;;;;;;5020208;28;20291;-69
2024/01/09 00:27:47;;;;;;;12.15;10.23;;;;;;;;;;5020103;28;20561;-69
2024/01/09 00:30:18;;;;;;;14.38;10.55;;;;;;;;;;5020376;28;20217;-69
2024/01/09 00:32:47;;;;;;;11.82;10.25;;;;;;;;;;5020473;28;20573;-69
2024/01/09 00:35:15;;;;;;;13.27;10.60;;;;;;;;;;5018842;28;20206;-69
2024/01/09 00:37:42;;;;;;;11.88;9.95;;;;;;;;;;5019837;28;20497;-69
2024/01/09 00:40:11;;;;;;;11.25;9.48;;;;;;;;;;5019940;28;20212;-69
2024/01/09 00:42:39;;;;;;;11.40;9.40;;;;;;;;;;5019681;28;20257;-69
2024/01/09 00:45:07;;;;;;;11.18;9.45;;;;;;;;;;5020104;28;20215;-69
2024/01/09 00:47:36;;;;;;;11.10;8.98;;;;;;;;;;5019221;28;21281;-69
2024/01/09 00:50:04;;;;;;;9.88;8.85;;;;;;;;;;5019539;28;20215;-69
2024/01/09 00:52:31;;;;;;;10.85;8.90;;;;;;;;;;5019565;28;20230;-69
2024/01/09 00:54:59;;;;;;;10.48;9.30;;;;;;;;;;5019503;28;20210;-70
2024/01/09 00:57:27;;;;;;;11.05;8.80;;;;;;;;;;5019873;28;20568;-69
2024/01/09 00:59:55;;;;;;;8.68;7.78;;;;;;;;;;5019801;28;20272;-69
2024/01/09 01:02:22;;;;;;;9.43;8.25;;;;;;;;;;5019051;28;20210;-69
2024/01/09 01:04:51;;;;;;;8.95;7.95;;;;;;;;;;5019511;28;20253;-69
2024/01/09 01:07:19;;;;;;;9.30;7.50;;;;;;;;;;5019718;28;20265;-69
2024/01/09 01:09:47;;;;;;;8.73;7.80;;;;;;;;;;5019321;28;20217;-69
2024/01/09 01:12:15;;;;;;;9.10;7.93;;;;;;;;;;5019550;28;20230;-69
2024/01/09 01:14:42;;;;;;;9.05;7.75;;;;;;;;;;5019707;28;20260;-69
2024/01/09 01:17:10;;;;;;;8.18;7.05;;;;;;;;;;5019252;28;20211;-69
2024/01/09 01:19:37;;;;;;;9.05;7.68;;;;;;;;;;5019493;28;20206;-69
2024/01/09 01:22:07;;;;;;;8.38;7.57;;;;;;;;;;5019113;28;20237;-69
2024/01/09 01:24:34;;;;;;;8.25;6.72;;;;;;;;;;5019320;28;20585;-70
2024/01/09 01:27:02;;;;;;;8.32;7.32;;;;;;;;;;5019215;28;20234;-69
2024/01/09 01:29:29;;;;;;;8.00;6.95;;;;;;;;;;5018821;28;20202;-69
2024/01/09 01:31:57;;;;;;;7.75;6.95;;;;;;;;;;5019015;28;20238;-70
2024/01/09 01:34:24;;;;;;;7.95;6.97;;;;;;;;;;5019240;28;20206;-69
2024/01/09 01:36:52;;;;;;;7.80;7.00;;;;;;;;;;5019191;28;20235;-69
2024/01/09 01:39:22;;;;;;;7.57;6.78;;;;;;;;;;5018891;28;20234;-70
2024/01/09 01:41:49;;;;;;;7.32;6.60;;;;;;;;;;5018814;28;20584;-69
2024/01/09 01:44:19;;;;;;;7.78;6.97;;;;;;;;;;5018884;28;20495;-69
2024/01/09 01:46:47;;;;;;;7.65;6.85;;;;;;;;;;5018812;28;20218;-69
2024/01/09 01:49:16;;;;;;;7.32;6.53;;;;;;;;;;5018468;28;20317;-70
2024/01/09 01:51:45;;;;;;;8.02;7.22;;;;;;;;;;5018886;28;20226;-69
2024/01/09 01:54:13;;;;;;;8.23;7.22;;;;;;;;;;5018415;28;20214;-69
2024/01/09 01:56:42;;;;;;;7.18;6.43;;;;;;;;;;5018580;28;20214;-70
2024/01/09 01:59:10;;;;;;;7.43;6.38;;;;;;;;;;5018523;28;20480;-69
2024/01/09 02:01:39;;;;;;;8.23;6.85;;;;;;;;;;5018635;28;20611;-70
2024/01/09 02:04:07;;;;;;;7.15;6.45;;;;;;;;;;5018333;28;20206;-69
2024/01/09 02:06:35;;;;;;;7.07;6.38;;;;;;;;;;5018604;28;20213;-69
2024/01/09 02:09:04;;;;;;;7.05;6.35;;;;;;;;;;5018430;28;20217;-69
2024/01/09 02:11:31;;;;;;;8.02;6.63;;;;;;;;;;5018429;28;20230;-70
2024/01/09 02:14:01;;;;;;;7.47;6.78;;;;;;;;;;5018376;28;20234;-70
2024/01/09 02:16:29;;;;;;;7.28;5.95;;;;;;;;;;5018249;28;20296;-69
2024/01/09 02:18:56;;;;;;;7.40;6.47;;;;;;;;;;5018450;28;20853;-69
2024/01/09 02:21:24;;;;;;;7.65;6.78;;;;;;;;;;5017425;28;20522;-69
2024/01/09 02:23:52;;;;;;;7.15;6.07;;;;;;;;;;5018514;28;20562;-70
2024/01/09 02:26:22;;;;;;;6.80;6.10;;;;;;;;;;5018209;28;20293;-69
2024/01/09 02:28:52;;;;;;;6.72;5.97;;;;;;;;;;5017559;28;20202;-69
2024/01/09 02:31:21;;;;;;;7.55;6.70;;;;;;;;;;5017844;28;20207;-69
2024/01/09 02:33:49;;;;;;;7.72;6.90;;;;;;;;;;5017904;28;20210;-69
2024/01/09 02:36:16;;;;;;;7.70;6.90;;;;;;;;;;5017444;28;20241;-69
2024/01/09 02:38:44;;;;;;;6.88;6.18;;;;;;;;;;5018094;28;20206;-69
2024/01/09 02:41:12;;;;;;;6.88;6.10;;;;;;;;;;5017688;28;20218;-70
2024/01/09 02:43:40;;;;;;;7.45;6.65;;;;;;;;;;5017369;28;20241;-69
2024/01/09 02:46:08;;;;;;;7.13;6.43;;;;;;;;;;5017839;28;20210;-69
2024/01/09 02:48:37;;;;;;;7.45;6.35;;;;;;;;;;5017461;28;20218;-69
2024/01/09 02:51:05;;;;;;;6.85;6.05;;;;;;;;;;5017471;28;20219;-69
2024/01/09 02:53:33;;;;;;;6.80;6.10;;;;;;;;;;5017553;28;20695;-69
2024/01/09 02:56:01;;;;;;;7.28;6.57;;;;;;;;;;5017715;28;20206;-69
2024/01/09 02:58:29;;;;;;;6.68;6.00;;;;;;;;;;5017173;28;20233;-69
2024/01/09 03:00:56;;;;;;;7.03;6.30;;;;;;;;;;5017145;28;20210;-69
2024/01/09 03:03:24;;;;;;;7.00;6.28;;;;;;;;;;5017548;28;20544;-69
2024/01/09 03:05:53;;;;;;;7.28;6.50;;;;;;;;;;5017748;28;20217;-69
2024/01/09 03:08:21;;;;;;;6.80;6.10;;;;;;;;;;5017373;28;20221;-70
2024/01/09 03:10:49;;;;;;;7.60;6.40;;;;;;;;;;5017559;28;20301;-69
2024/01/09 03:13:16;;;;;;;7.72;6.90;;;;;;;;;;5016598;28;20240;-69
2024/01/09 03:15:44;;;;;;;7.05;6.18;;;;;;;;;;5017076;28;20646;-69
2024/01/09 03:18:12;;;;;;;7.05;6.35;;;;;;;;;;5017037;28;20284;-69
2024/01/09 03:20:40;;;;;;;6.90;6.20;;;;;;;;;;5017336;28;20206;-69
2024/01/09 03:23:09;;;;;;;7.18;6.00;;;;;;;;;;5017170;28;20214;-69
2024/01/09 03:25:37;;;;;;;7.47;6.30;;;;;;;;;;5017413;28;20214;-69
2024/01/09 03:28:05;;;;;;;7.28;6.57;;;;;;;;;;5017295;28;20651;-70
2024/01/09 03:30:32;;;;;;;6.65;5.93;;;;;;;;;;5017271;28;20484;-69
2024/01/09 03:33:00;;;;;;;6.90;6.20;;;;;;;;;;5016796;28;20230;-69
2024/01/09 03:35:28;;;;;;;6.75;6.15;;;;;;;;;;5016803;28;20206;-69
2024/01/09 03:37:56;;;;;;;7.18;6.47;;;;;;;;;;5017508;28;20214;-70
2024/01/09 03:40:25;;;;;;;7.45;6.10;;;;;;;;;;5017390;28;20206;-69
2024/01/09 03:42:53;;;;;;;6.82;6.00;;;;;;;;;;5017335;28;20202;-69
2024/01/09 03:45:21;;;;;;;7.03;5.97;;;;;;;;;;5017189;28;20293;-69
2024/01/09 03:47:48;;;;;;;6.68;6.05;;;;;;;;;;5017138;28;20214;-70
2024/01/09 03:50:16;;;;;;;7.20;6.10;;;;;;;;;;5017061;28;20214;-69
2024/01/09 03:52:45;;;;;;;6.75;5.90;;;;;;;;;;5017125;28;20612;-69
2024/01/09 03:55:12;;;;;;;6.88;6.22;;;;;;;;;;5016776;28;20221;-69
2024/01/09 03:57:42;;;;;;;6.55;5.90;;;;;;;;;;5016835;28;20276;-69
2024/01/09 04:00:10;;;;;;;7.60;6.72;;;;;;;;;;5017081;28;20206;-69
2024/01/09 04:02:38;;;;;;;7.32;6.05;;;;;;;;;;5016802;28;20210;-70
2024/01/09 04:05:07;;;;;;;6.80;6.10;;;;;;;;;;5016705;28;20288;-70
2024/01/09 04:07:35;;;;;;;6.63;5.93;;;;;;;;;;5017150;28;20207;-69
2024/01/09 04:10:03;;;;;;;7.45;6.63;;;;;;;;;;5019765;28;20214;-69
2024/01/09 04:12:30;;;;;;;7.30;6.25;;;;;;;;;;5020451;28;20266;-69
2024/01/09 04:14:59;;;;;;;7.30;6.22;;;;;;;;;;5020232;28;20545;-69
2024/01/09 04:17:27;;;;;;;6.97;6.28;;;;;;;;;;5019878;28;20305;-69
2024/01/09 04:19:56;;;;;;;7.30;6.53;;;;;;;;;;5020299;28;20212;-69
2024/01/09 04:22:23;;;;;;;7.25;6.30;;;;;;;;;;5020086;28;20300;-69
2024/01/09 04:24:52;;;;;;;6.63;6.03;;;;;;;;;;5020060;28;20595;-69
2024/01/09 04:27:19;;;;;;;6.65;5.90;;;;;;;;;;5019976;28;20256;-69
2024/01/09 04:29:47;;;;;;;7.45;6.57;;;;;;;;;;5019935;28;20214;-69
2024/01/09 04:32:16;;;;;;;7.45;6.65;;;;;;;;;;5019852;28;20490;-69
2024/01/09 04:34:44;;;;;;;6.93;6.20;;;;;;;;;;5019468;28;20206;-69
2024/01/09 04:37:11;;;;;;;7.05;6.35;;;;;;;;;;5019650;28;20260;-70
2024/01/09 04:39:39;;;;;;;7.55;6.75;;;;;;;;;;5020007;28;20210;-69
2024/01/09 04:42:06;;;;;;;7.03;6.20;;;;;;;;;;5019792;28;20238;-69
2024/01/09 04:44:34;;;;;;;7.07;6.22;;;;;;;;;;5019911;28;20206;-69
2024/01/09 04:47:02;;;;;;;7.32;6.53;;;;;;;;;;5019511;28;20213;-69
2024/01/09 04:49:30;;;;;;;6.55;5.85;;;;;;;;;;5019772;28;20216;-69
2024/01/09 04:51:58;;;;;;;7.78;6.97;;;;;;;;;;5019542;28;20587;-69
2024/01/09 04:54:25;;;;;;;7.63;6.50;;;;;;;;;;5019537;28;20217;-69
2024/01/09 04:56:52;;;;;;;6.68;6.05;;;;;;;;;;5019847;28;20539;-69
2024/01/09 04:59:21;;;;;;;8.80;6.63;;;;;;;;;;5019516;28;20206;-69
2024/01/09 05:01:50;;;;;;;7.38;6.65;;;;;;;;;;5019278;28;20216;-69
2024/01/09 05:04:17;;;;;;;7.00;6.30;;;;;;;;;;5019693;28;20488;-69
2024/01/09 05:06:46;;;;;;;7.20;6.50;;;;;;;;;;5019284;28;20213;-69
2024/01/09 05:09:13;;;;;;;6.88;6.18;;;;;;;;;;5018977;28;20272;-69
2024/01/09 05:11:41;;;;;;;7.70;6.50;;;;;;;;;;5019210;28;20217;-69
2024/01/09 05:14:09;;;;;;;6.85;6.15;;;;;;;;;;5019170;28;20230;-69
2024/01/09 05:16:36;;;;;;;7.65;6.40;;;;;;;;;;5019530;28;20501;-69
2024/01/09 05:19:04;;;;;;;6.93;6.15;;;;;;;;;;5018722;28;20739;-69
2024/01/09 05:21:31;;;;;;;7.28;6.57;;;;;;;;;;5018371;28;20604;-69
2024/01/09 05:24:00;;;;;;;6.97;6.00;;;;;;;;;;5019081;28;20213;-69
2024/01/09 05:26:28;;;;;;;7.55;6.13;;;;;;;;;;5018427;28;20573;-69
2024/01/09 05:28:55;;;;;;;8.13;6.70;;;;;;;;;;5018372;28;20206;-69
2024/01/09 05:31:22;;;;;;;6.90;5.90;;;;;;;;;;5018138;28;20289;-69
2024/01/09 05:33:50;;;;;;;7.18;6.18;;;;;;;;;;5017623;28;20230;-69
2024/01/09 05:36:22;;;;;;;8.15;6.57;;;;;;;;;;5018192;28;20211;-69
2024/01/09 05:38:49;;;;;;;8.65;6.85;;;;;;;;;;5018248;28;20214;-69
2024/01/09 05:41:21;;;;;;;7.05;6.35;;;;;;;;;;5017901;28;20198;-69
2024/01/09 05:43:48;;;;;;;8.45;6.72;;;;;;;;;;5016989;28;20570;-69
2024/01/09 05:46:16;;;;;;;8.13;6.60;;;;;;;;;;5017679;28;20211;-69
2024/01/09 05:48:44;;;;;;;7.95;6.03;;;;;;;;;;5016844;28;20207;-69
2024/01/09 05:51:11;;;;;;;8.25;6.82;;;;;;;;;;5017108;28;20213;-68
2024/01/09 05:53:39;;;;;;;7.57;6.45;;;;;;;;;;5017087;28;20229;-68
2024/01/09 05:56:07;;;;;;;7.75;6.95;;;;;;;;;;5016702;28;20532;-69
2024/01/09 05:58:36;;;;;;;7.45;6.32;;;;;;;;;;5016624;28;20468;-69
2024/01/09 06:01:03;;;;;;;8.05;6.30;;;;;;;;;;5016925;28;20626;-69
2024/01/09 06:03:30;;;;;;;7.68;6.88;;;;;;;;;;5016053;28;20209;-69
2024/01/09 06:05:58;;;;;;;7.35;6.55;;;;;;;;;;5016312;28;20228;-69
2024/01/09 06:08:25;;;;;;;8.27;6.60;;;;;;;;;;5016568;28;20721;-68
2024/01/09 06:10:53;;;;;;;8.20;6.97;;;;;;;;;;5015903;28;20221;-69
2024/01/09 06:13:20;;;;;;;7.50;6.65;;;;;;;;;;5016021;28;20222;-69
2024/01/09 06:15:49;;;;;;;7.65;6.90;;;;;;;;;;5016386;28;20206;-69
2024/01/09 06:18:16;;;;;;;7.65;6.63;;;;;;;;;;5016056;28;20212;-68
2024/01/09 06:20:44;;;;;;;7.30;6.57;;;;;;;;;;5016607;28;20212;-69
2024/01/09 06:23:12;;;;;;;7.72;6.68;;;;;;;;;;5016423;28;20230;-69
2024/01/09 06:25:39;;;;;;;7.40;6.40;;;;;;;;;;5016478;28;20228;-69
2024/01/09 06:28:07;;;;;;;8.77;6.80;;;;;;;;;;5016159;28;20204;-69
2024/01/09 06:30:34;;;;;;;7.80;6.88;;;;;;;;;;5015425;28;20245;-69
2024/01/09 06:33:03;;;;;;;8.10;7.10;;;;;;;;;;5015250;28;20241;-69
2024/01/09 06:35:31;;;;;;;10.90;9.80;;;;;;;;;;5016037;28;20511;-69
2024/01/09 06:37:58;;;;;;;9.13;8.13;;;;;;;;;;5014473;28;20206;-69
2024/01/09 06:40:26;;;;;;;9.50;7.85;;;;;;;;;;5015709;28;20202;-69
2024/01/09 06:42:53;;;;;;;8.30;7.50;;;;;;;;;;5015698;28;20194;-69
2024/01/09 06:45:21;;;;;;;15.60;14.30;;;;;;;;;;5015834;28;20214;-69
2024/01/09 06:47:49;;;;;;;13.10;11.93;;;;;;;;;;5012755;28;20592;-69
2024/01/09 06:50:17;;;;;;;12.73;11.52;;;;;;;;;;5011186;28;20628;-69
2024/01/09 06:52:45;;;;;;;11.73;10.63;;;;;;;;;;5016113;28;20204;-69
2024/01/09 06:55:12;;;;;;;12.52;11.23;;;;;;;;;;5016942;28;20206;-69
2024/01/09 06:57:40;;;;;;;12.85;11.55;;;;;;;;;;5015437;28;20194;-69
2024/01/09 07:00:08;;;;;;;23.10;20.73;;;;;;;;;;5015546;28;20210;-69
2024/01/09 07:02:36;;;;;;;18.08;16.23;;;;;;;;;;5015753;28;20210;-69
2024/01/09 07:05:04;;;;;;;16.60;14.95;;;;;;;;;;5016561;28;20206;-69
2024/01/09 07:07:33;;;;;;;15.57;14.07;;;;;;;;;;5015950;28;20206;-69
2024/01/09 07:10:00;;;;;;;15.25;13.75;;;;;;;;;;5014622;28;20210;-69
2024/01/09 07:12:29;;;;;;;15.20;13.68;;;;;;;;;;5015656;28;20205;-69
2024/01/09 07:14:57;;;;;;;15.32;13.75;;;;;;;;;;5015622;28;20233;-69
2024/01/09 07:17:24;;;;;;;14.90;13.45;;;;;;;;;;5015956;28;20209;-69
2024/01/09 07:19:52;;;;;;;14.50;13.13;;;;;;;;;;5015701;28;20213;-69
2024/01/09 07:22:19;;;;;;;14.70;13.20;;;;;;;;;;5029314;28;20233;-69
2024/01/09 07:24:48;;;;;;;14.63;13.13;;;;;;;;;;5036375;28;20202;-69
2024/01/09 07:27:15;;;;;;;12.90;11.60;;;;;;;;;;5035940;28;20212;-69
2024/01/09 07:29:43;;;;;;;13.93;12.52;;;;;;;;;;5035854;28;20217;-69
2024/01/09 07:32:10;;;;;;;14.50;11.90;;;;;;;;;;5035898;28;20220;-69
2024/01/09 07:34:38;;;;;;;13.50;12.10;;;;;;;;;;5036326;28;20348;-70
2024/01/09 07:37:05;;;;;;;12.18;10.98;;;;;;;;;;5035853;28;20220;-69
2024/01/09 07:39:32;;;;;;;12.57;11.27;;;;;;;;;;5036008;28;20212;-68
2024/01/09 07:42:01;;;;;;;13.48;10.90;;;;;;;;;;5035748;28;20220;-69
2024/01/09 07:44:29;;;;;;;13.48;11.23;;;;;;;;;;5038114;28;20295;-69
2024/01/09 07:46:56;;;;;;;15.63;11.32;;;;;;;;;;5039667;28;20213;-69
2024/01/09 07:49:23;;;;;;;12.02;10.70;;;;;;;;;;5039710;28;20213;-69
2024/01/09 07:51:51;;;;;;;13.48;10.50;;;;;;;;;;5039656;28;20216;-69
2024/01/09 07:54:18;;;;;;;12.07;10.07;;;;;;;;;;5039557;28;20229;-69
2024/01/09 07:56:47;;;;;;;11.02;9.80;;;;;;;;;;5039930;28;20256;-69
2024/01/09 07:59:16;;;;;;;11.65;10.40;;;;;;;;;;5039010;28;20215;-69
2024/01/09 08:01:43;;;;;;;10.48;9.48;;;;;;;;;;5038785;28;20201;-69
2024/01/09 08:04:11;;;;;;;11.68;9.60;;;;;;;;;;5038586;28;20201;-69
2024/01/09 08:06:38;;;;;;;10.40;9.27;;;;;;;;;;5038787;28;20216;-69
2024/01/09 08:09:06;;;;;;;11.40;10.05;;;;;;;;;;5039088;28;20197;-69
2024/01/09 08:11:33;;;;;;;10.63;9.55;;;;;;;;;;5039159;28;20205;-69
2024/01/09 08:14:00;;;;;;;10.00;9.00;;;;;;;;;;5039311;28;20226;-69
2024/01/09 08:16:29;;;;;;;11.38;9.60;;;;;;;;;;5039284;28;20206;-69
2024/01/09 08:18:57;;;;;;;9.98;8.98;;;;;;;;;;5038815;28;20205;-69
2024/01/09 08:21:25;;;;;;;11.20;9.80;;;;;;;;;;5038868;28;20233;-69
2024/01/09 08:23:52;;;;;;;12.20;10.05;;;;;;;;;;5038829;28;20200;-69
2024/01/09 08:26:19;;;;;;;11.10;9.40;;;;;;;;;;5039049;28;20305;-69
2024/01/09 08:28:47;;;;;;;17.52;15.52;;;;;;;;;;5038440;28;20212;-69
2024/01/09 08:31:14;;;;;;;15.98;13.55;;;;;;;;;;5038360;28;20212;-69
2024/01/09 08:33:43;;;;;;;13.50;12.10;;;;;;;;;;5037988;28;20232;-69
2024/01/09 08:36:11;;;;;;;13.93;12.18;;;;;;;;;;5038815;28;20201;-69
2024/01/09 08:38:39;;;;;;;13.73;12.25;;;;;;;;;;5038577;28;20305;-69
2024/01/09 08:41:06;;;;;;;13.98;12.15;;;;;;;;;;5038716;28;20216;-69
2024/01/09 08:43:34;;;;;;;13.48;11.50;;;;;;;;;;5038856;28;20686;-69
2024/01/09 08:46:01;;;;;;;13.55;12.15;;;;;;;;;;5038222;28;20289;-69
2024/01/09 08:48:29;;;;;;;12.50;11.30;;;;;;;;;;5037620;28;20249;-69
2024/01/09 08:50:58;;;;;;;13.15;11.75;;;;;;;;;;5037548;28;20215;-69
2024/01/09 08:53:28;;;;;;;12.98;11.55;;;;;;;;;;5037441;28;20298;-69
2024/01/09 08:55:55;;;;;;;12.10;10.85;;;;;;;;;;5036771;28;20214;-69
2024/01/09 08:58:22;;;;;;;12.20;10.90;;;;;;;;;;5038226;28;20212;-69
2024/01/09 09:00:50;;;;;;;12.38;11.07;;;;;;;;;;5038455;28;20305;-69
2024/01/09 09:03:17;;;;;;;11.82;10.57;;;;;;;;;;5037278;28;20506;-69
2024/01/09 09:05:45;;;;;;;20.80;18.70;;;;;;;;;;5038057;28;20587;-69
2024/01/09 09:08:14;;;;;;;17.63;15.90;;;;;;;;;;5038057;28;20575;-69
2024/01/09 09:10:41;;;;;;;16.02;14.35;;;;;;;;;;5038147;28;20235;-69
2024/01/09 09:13:09;;;;;;;15.23;13.73;;;;;;;;;;5037721;28;20501;-69
2024/01/09 09:15:37;;;;;;;15.45;13.95;;;;;;;;;;5037825;28;20236;-69
2024/01/09 09:18:05;;;;;;;15.90;14.35;;;;;;;;;;5038326;28;20301;-69
2024/01/09 09:20:32;;;;;;;15.10;13.60;;;;;;;;;;5037561;28;20216;-69
2024/01/09 09:23:00;;;;;;;15.13;13.57;;;;;;;;;;5037450;28;20704;-69
2024/01/09 09:25:30;;;;;;;14.15;12.75;;;;;;;;;;5038211;28;20565;-70
2024/01/09 09:27:58;;;;;;;14.30;12.88;;;;;;;;;;5037609;28;20234;-69
2024/01/09 09:30:26;;;;;;;15.18;13.32;;;;;;;;;;5037620;28;20210;-69
2024/01/09 09:32:58;;;;;;;14.45;12.90;;;;;;;;;;5038011;28;20227;-69
2024/01/09 09:35:25;;;;;;;13.75;12.38;;;;;;;;;;5036784;28;20236;-69
2024/01/09 09:37:52;;;;;;;13.48;12.18;;;;;;;;;;5037139;28;20205;-69
2024/01/09 09:40:20;;;;;;;13.15;11.85;;;;;;;;;;5036362;28;20212;-69
2024/01/09 09:42:53;;;;;;;13.43;12.02;;;;;;;;;;5036771;28;20205;-69
2024/01/09 09:45:21;;;;;;;13.02;11.73;;;;;;;;;;5036430;28;20270;-69
2024/01/09 09:47:50;;;;;;;11.95;10.75;;;;;;;;;;5037129;28;20501;-70
2024/01/09 09:50:18;;;;;;;13.88;12.45;;;;;;;;;;5037033;28;20467;-69
2024/01/09 09:52:45;;;;;;;13.25;11.95;;;;;;;;;;5037094;28;20212;-69
2024/01/09 09:55:13;;;;;;;12.75;11.45;;;;;;;;;;5037094;28;20235;-69
2024/01/09 09:57:40;;;;;;;12.88;11.57;;;;;;;;;;5036943;28;20202;-69
2024/01/09 10:00:10;;;;;;;13.02;11.48;;;;;;;;;;5036900;28;20460;-69
2024/01/09 10:02:40;;;;;;;12.85;11.55;;;;;;;;;;5036499;28;20205;-69
2024/01/09 10:05:12;;;;;;;12.50;11.20;;;;;;;;;;5036482;28;20223;-69
2024/01/09 10:07:40;;;;;;;12.52;11.30;;;;;;;;;;5036358;28;20301;-69
2024/01/09 10:10:08;;;;;;;13.27;11.40;;;;;;;;;;5037155;28;20594;-69
2024/01/09 10:12:36;;;;;;;12.68;11.32;;;;;;;;;;5036391;28;20642;-69
2024/01/09 10:15:07;;;;;;;12.25;11.05;;;;;;;;;;5036267;28;20226;-69
2024/01/09 10:17:35;;;;;;;12.75;11.45;;;;;;;;;;5036480;28;20202;-69
2024/01/09 10:20:04;;;;;;;12.07;10.77;;;;;;;;;;5037034;28;20742;-69
2024/01/09 10:22:35;;;;;;;12.45;11.15;;;;;;;;;;5036455;28;20248;-69
2024/01/09 10:25:04;;;;;;;12.50;11.20;;;;;;;;;;5035958;28;20240;-69
2024/01/09 10:27:32;;;;;;;15.20;13.60;;;;;;;;;;5036354;28;20206;-69
2024/01/09 10:30:00;;;;;;;13.98;12.65;;;;;;;;;;5035356;28;20247;-69
2024/01/09 10:32:27;;;;;;;13.35;12.02;;;;;;;;;;5035360;28;20206;-69
2024/01/09 10:34:56;;;;;;;13.27;11.98;;;;;;;;;;5035487;28;20225;-69
2024/01/09 10:37:23;;;;;;;13.85;12.43;;;;;;;;;;5036148;28;20210;-69
2024/01/09 10:39:51;;;;;;;13.32;12.07;;;;;;;;;;5035437;28;20205;-69
2024/01/09 10:42:18;;;;;;;13.00;11.80;;;;;;;;;;5035979;28;20206;-69
2024/01/09 10:44:47;;;;;;;13.20;11.90;;;;;;;;;;5035561;28;20213;-69
2024/01/09 10:47:16;;;;;;;13.57;12.15;;;;;;;;;;5035705;28;20305;-69
2024/01/09 10:49:44;;;;;;;12.77;11.45;;;;;;;;;;5035047;28;20213;-69
2024/01/09 10:52:14;;;;;;;12.63;11.40;;;;;;;;;;5035889;28;20240;-69
2024/01/09 10:54:42;;;;;;;12.70;11.50;;;;;;;;;;5035381;28;20225;-69
2024/01/09 10:57:12;;;;;;;12.52;11.23;;;;;;;;;;5035618;28;20213;-68
2024/01/09 10:59:40;;;;;;;12.35;11.15;;;;;;;;;;5034824;28;20216;-69
2024/01/09 11:02:12;;;;;;;12.52;11.27;;;;;;;;;;5035325;28;20213;-70
2024/01/09 11:04:40;;;;;;;11.95;10.73;;;;;;;;;;5035016;28;20206;-69
2024/01/09 11:07:08;;;;;;;12.45;11.10;;;;;;;;;;5035408;28;20205;-69
2024/01/09 11:09:39;;;;;;;12.48;11.27;;;;;;;;;;5034909;28;20220;-70
2024/01/09 11:12:07;;;;;;;11.93;10.73;;;;;;;;;;5035536;28;20596;-69
2024/01/09 11:14:35;;;;;;;12.80;11.50;;;;;;;;;;5035578;28;20237;-69
2024/01/09 11:17:03;;;;;;;11.75;10.65;;;;;;;;;;5034759;28;20622;-69
2024/01/09 11:19:30;;;;;;;12.20;10.93;;;;;;;;;;5039702;28;20213;-69
2024/01/09 11:21:58;;;;;;;12.57;10.93;;;;;;;;;;5041601;28;20709;-69
2024/01/09 11:24:25;;;;;;;11.23;10.20;;;;;;;;;;5042210;28;20735;-70
2024/01/09 11:27:08;;;;;;;11.80;10.60;;;;;;;;;;5041582;28;20205;-69
2024/01/09 11:29:49;;;;;;;11.65;10.45;;;;;;;;;;5041421;28;20259;-69
2024/01/09 11:32:17;;;;;;;12.07;10.80;;;;;;;;;;5041447;28;20213;-69
2024/01/09 11:34:46;;;;;;;12.02;10.77;;;;;;;;;;5040938;28;20221;-70
2024/01/09 11:37:14;;;;;;;11.68;10.48;;;;;;;;;;5040259;28;20633;-69
2024/01/09 11:39:41;;;;;;;11.50;10.30;;;;;;;;;;5040969;28;20240;-69
2024/01/09 11:42:08;;;;;;;12.02;10.73;;;;;;;;;;5041524;28;20205;-69
2024/01/09 11:44:36;;;;;;;11.40;10.18;;;;;;;;;;5041433;28;20482;-69
2024/01/09 11:47:05;;;;;;;12.40;11.10;;;;;;;;;;5041854;28;20500;-69
2024/01/09 11:49:33;;;;;;;11.93;10.68;;;;;;;;;;5040706;28;20217;-69
2024/01/09 11:52:01;;;;;;;11.63;10.43;;;;;;;;;;5040754;28;20221;-69
2024/01/09 11:54:28;;;;;;;12.60;10.98;;;;;;;;;;5040995;28;20232;-69
2024/01/09 11:56:57;;;;;;;11.23;10.13;;;;;;;;;;5040398;28;20198;-69
2024/01/09 11:59:24;;;;;;;11.50;10.30;;;;;;;;;;5040670;28;20220;-69
2024/01/09 12:01:52;;;;;;;11.40;10.20;;;;;;;;;;5040204;28;20197;-69
2024/01/09 12:04:20;;;;;;;11.27;9.93;;;;;;;;;;5040414;28;20570;-69
2024/01/09 12:06:48;;;;;;;11.70;10.50;;;;;;;;;;5041551;28;20214;-69
2024/01/09 12:09:15;;;;;;;11.25;10.05;;;;;;;;;;5040582;28;20214;-69
2024/01/09 12:11:43;;;;;;;11.35;10.20;;;;;;;;;;5041419;28;20658;-69
2024/01/09 12:14:11;;;;;;;11.25;10.13;;;;;;;;;;5040327;28;20205;-69
2024/01/09 12:16:38;;;;;;;11.32;10.18;;;;;;;;;;5040953;28;20284;-69
2024/01/09 12:19:06;;;;;;;11.13;10.00;;;;;;;;;;5040441;28;20202;-69
2024/01/09 12:21:36;;;;;;;11.25;10.10;;;;;;;;;;5040940;28;20320;-69
2024/01/09 12:24:05;;;;;;;11.63;10.43;;;;;;;;;;5041411;28;20244;-69
2024/01/09 12:26:34;;;;;;;10.95;9.85;;;;;;;;;;5040938;28;20202;-69
2024/01/09 12:29:02;;;;;;;11.45;10.25;;;;;;;;;;5040446;28;20212;-69
2024/01/09 12:31:30;;;;;;;10.70;9.60;;;;;;;;;;5038435;28;20210;-69
2024/01/09 12:33:57;;;;;;;10.48;9.40;;;;;;;;;;5037463;28;20197;-69
2024/01/09 12:36:26;;;;;;;11.00;9.90;;;;;;;;;;5037413;28;20221;-69
2024/01/09 12:38:56;;;;;;;11.43;10.32;;;;;;;;;;5037194;28;20217;-69
2024/01/09 12:41:24;;;;;;;11.00;9.90;;;;;;;;;;5037626;28;20229;-69
2024/01/09 12:43:52;;;;;;;11.32;10.20;;;;;;;;;;5036472;28;20204;-69
2024/01/09 12:46:20;;;;;;;11.10;9.50;;;;;;;;;;5035131;28;20503;-69
2024/01/09 12:48:49;;;;;;;10.63;9.63;;;;;;;;;;5036777;28;20206;-69
2024/01/09 12:51:16;;;;;;;14.00;10.43;;;;;;;;;;5036672;28;20730;-69
2024/01/09 12:53:43;;;;;;;11.50;10.00;;;;;;;;;;5036802;28;20488;-70
2024/01/09 12:56:14;;;;;;;11.07;9.90;;;;;;;;;;5037127;28;20233;-69
2024/01/09 12:58:44;;;;;;;10.68;9.25;;;;;;;;;;5037393;28;20267;-69
2024/01/09 13:01:11;;;;;;;11.57;9.90;;;;;;;;;;5037480;28;20216;-69
2024/01/09 13:03:39;;;;;;;11.63;10.00;;;;;;;;;;5037608;28;20201;-69
2024/01/09 13:06:07;;;;;;;10.88;9.77;;;;;;;;;;5037550;28;20201;-69
2024/01/09 13:08:35;;;;;;;11.98;10.48;;;;;;;;;;5037734;28;20315;-69
2024/01/09 13:11:03;;;;;;;12.63;11.23;;;;;;;;;;5035783;28;20213;-69
2024/01/09 13:13:32;;;;;;;13.80;12.40;;;;;;;;;;5037293;28;20216;-69
2024/01/09 13:16:00;;;;;;;14.15;12.75;;;;;;;;;;5036497;28;20225;-69
2024/01/09 13:18:27;;;;;;;13.02;11.65;;;;;;;;;;5036629;28;20212;-69
2024/01/09 13:20:55;;;;;;;14.98;12.75;;;;;;;;;;5037452;28;20506;-70
2024/01/09 13:23:23;;;;;;;13.20;11.77;;;;;;;;;;5037110;28;20217;-69
2024/01/09 13:25:52;;;;;;;12.90;11.30;;;;;;;;;;5036378;28;20201;-69
2024/01/09 13:28:19;;;;;;;13.00;11.60;;;;;;;;;;5036607;28;20288;-69
2024/01/09 13:30:48;;;;;;;13.43;11.93;;;;;;;;;;5036626;28;20213;-69
2024/01/09 13:33:15;;;;;;;12.88;11.23;;;;;;;;;;5036003;28;20205;-69
2024/01/09 13:35:43;;;;;;;13.23;11.43;;;;;;;;;;5036094;28;20225;-70
2024/01/09 13:38:10;;;;;;;12.18;10.95;;;;;;;;;;5035878;28;20571;-69
2024/01/09 13:40:38;;;;;;;12.95;11.63;;;;;;;;;;5036673;28;20242;-69
2024/01/09 13:43:06;;;;;;;12.60;11.30;;;;;;;;;;5035829;28;20288;-69
2024/01/09 13:45:33;;;;;;;12.18;10.88;;;;;;;;;;5035706;28;20202;-69
2024/01/09 13:48:02;;;;;;;12.13;10.82;;;;;;;;;;5036313;28;20202;-69
2024/01/09 13:50:29;;;;;;;12.20;10.80;;;;;;;;;;5034742;28;20606;-69
2024/01/09 13:52:57;;;;;;;11.77;10.57;;;;;;;;;;5035533;28;20308;-69
2024/01/09 13:55:24;;;;;;;13.55;11.38;;;;;;;;;;5036175;28;20240;-70
2024/01/09 13:57:52;;;;;;;12.48;10.70;;;;;;;;;;5036511;28;20208;-70
2024/01/09 14:00:19;;;;;;;12.60;11.30;;;;;;;;;;5036296;28;20206;-70
2024/01/09 14:02:47;;;;;;;12.40;11.10;;;;;;;;;;5035350;28;20268;-69
2024/01/09 14:05:16;;;;;;;11.57;10.38;;;;;;;;;;5036309;28;20575;-70
2024/01/09 14:07:44;;;;;;;11.68;10.40;;;;;;;;;;5035882;28;20220;-70
2024/01/09 14:10:13;;;;;;;12.50;11.13;;;;;;;;;;5036020;28;20217;-69
2024/01/09 14:12:41;;;;;;;11.75;10.55;;;;;;;;;;5035556;28;20552;-70
2024/01/09 14:15:09;;;;;;;12.13;10.93;;;;;;;;;;5035619;28;20328;-70
2024/01/09 14:17:38;;;;;;;11.55;10.35;;;;;;;;;;5035429;28;20220;-70
2024/01/09 14:20:07;;;;;;;11.82;10.50;;;;;;;;;;5035495;28;20213;-69
2024/01/09 14:22:36;;;;;;;11.63;10.43;;;;;;;;;;5034601;28;20245;-69
2024/01/09 14:25:04;;;;;;;12.50;10.35;;;;;;;;;;5035043;28;20267;-69
2024/01/09 14:27:32;;;;;;;14.02;12.52;;;;;;;;;;5034795;28;20201;-69
2024/01/09 14:29:59;;;;;;;13.30;11.90;;;;;;;;;;5034734;28;20212;-69
2024/01/09 14:32:26;;;;;;;12.82;11.52;;;;;;;;;;5034737;28;20206;-69